Time;durP1;ratioP1;P1;durP2;ratioP2;P2;SDS_P1;SDS_P2;PMS_P1;PMS_P2;Temp;Humidity;BMP_temperature;BMP_pressure;BME280_temperature;BME280_humidity;BME280_pressure;Samples;Min_cycle;Max_cycle;Signal;HPM_P1;HPM_P2
2022/08/08 00:00:03;;;;;;;3.45;2.60;;;15.70;91.90;;;16.60;56.40;98291.56;5198928;28;20197;-62
2022/08/08 00:03:04;;;;;;;2.20;2.10;;;15.70;91.80;;;16.46;55.81;98291.00;5203268;28;20231;-62
2022/08/08 00:06:05;;;;;;;2.97;2.78;;;15.60;91.50;;;16.39;55.95;98288.97;5198551;28;20205;-63
2022/08/08 00:08:45;;;;;;;2.92;2.38;;;15.50;91.90;;;16.41;56.43;98293.38;5206682;28;20225;-62
2022/08/08 00:11:34;;;;;;;2.58;2.40;;;15.50;91.90;;;16.45;56.30;98294.38;5202994;28;20206;-63
2022/08/08 00:14:50;;;;;;;2.20;2.10;;;15.50;92.00;;;16.30;56.73;98296.34;5203886;28;20600;-62
2022/08/08 00:17:42;;;;;;;2.67;2.22;;;15.40;92.00;;;16.18;57.00;98300.16;5200853;28;20308;-62
2022/08/08 00:20:43;;;;;;;2.60;2.40;;;15.40;92.30;;;16.24;57.35;98306.41;5208354;28;20724;-63
2022/08/08 00:23:40;;;;;;;2.67;2.58;;;15.30;92.50;;;16.21;57.53;98305.44;5199083;28;20217;-63
2022/08/08 00:26:25;;;;;;;2.70;2.60;;;15.30;92.60;;;16.18;57.97;98307.03;5202479;28;20284;-63
2022/08/08 00:29:11;;;;;;;2.50;2.30;;;15.30;93.10;;;16.13;58.18;98300.78;5198315;28;20692;-63
2022/08/08 00:31:53;;;;;;;2.25;2.05;;;15.20;93.80;;;16.11;59.02;98293.00;5198988;28;20296;-63
2022/08/08 00:35:13;;;;;;;2.40;2.20;;;15.20;93.90;;;16.13;59.06;98296.50;5199811;28;20205;-62
2022/08/08 00:38:20;;;;;;;2.50;2.30;;;15.20;94.20;;;16.11;59.11;98303.31;5200983;28;20689;-63
2022/08/08 00:41:55;;;;;;;2.60;2.40;;;15.20;94.00;;;16.06;59.45;98304.81;5201749;28;20229;-63
2022/08/08 00:45:19;;;;;;;2.67;2.47;;;15.20;94.40;;;16.06;59.33;98309.97;5189921;28;20206;-63
2022/08/08 00:48:35;;;;;;;2.83;2.60;;;15.10;94.40;;;16.02;59.29;98302.91;5204917;28;20731;-62
2022/08/08 00:51:48;;;;;;;2.85;2.67;;;15.10;94.30;;;16.01;59.06;98301.13;5205980;28;20281;-62
2022/08/08 00:55:05;;;;;;;2.70;2.50;;;15.10;94.20;;;15.95;58.62;98306.91;5197712;28;20311;-62
2022/08/08 00:58:29;;;;;;;2.70;2.50;;;15.10;93.90;;;15.87;58.80;98302.25;5199236;28;20255;-63
2022/08/08 01:01:16;;;;;;;2.70;2.50;;;15.00;93.80;;;15.82;58.97;98303.72;5185079;28;20264;-63
2022/08/08 01:05:08;;;;;;;2.75;2.55;;;15.00;94.20;;;15.77;59.13;98303.56;5212550;28;20209;-62
2022/08/08 01:08:43;;;;;;;2.90;2.70;;;14.90;94.00;;;15.81;59.61;98302.84;5193621;28;20675;-62
2022/08/08 01:12:03;;;;;;;2.85;2.65;;;14.90;94.50;;;15.75;59.92;98313.78;5196333;28;20280;-62
2022/08/08 01:15:24;;;;;;;2.65;2.53;;;14.80;95.00;;;15.65;61.25;98305.53;5198491;28;20261;-63
2022/08/08 01:19:02;;;;;;;2.55;2.45;;;14.70;95.70;;;15.64;61.31;98314.97;5203377;28;20232;-62
2022/08/08 01:22:45;;;;;;;2.70;2.50;;;14.70;96.20;;;15.52;61.97;98317.00;5200858;28;20567;-62
2022/08/08 01:26:05;;;;;;;2.30;2.20;;;14.50;96.50;;;15.46;61.85;98322.75;5204148;28;20319;-63
2022/08/08 01:29:29;;;;;;;2.50;2.40;;;14.50;96.80;;;15.31;62.94;98320.38;5208084;28;20213;-62
2022/08/08 01:33:18;;;;;;;2.90;2.63;;;14.30;97.30;;;15.20;62.86;98312.97;5201776;28;20776;-63
2022/08/08 01:36:52;;;;;;;2.70;2.50;;;14.30;97.60;;;15.20;63.37;98315.56;5199606;28;20297;-63
2022/08/08 01:39:37;;;;;;;2.67;2.58;;;14.20;97.80;;;15.13;63.30;98309.22;5205474;28;20305;-63
2022/08/08 01:42:26;;;;;;;2.75;2.53;;;14.20;97.80;;;15.13;64.20;98313.47;5205839;28;20750;-63
2022/08/08 01:45:33;;;;;;;2.45;2.35;;;14.20;98.10;;;15.11;63.57;98318.59;5207294;28;20291;-63
2022/08/08 01:48:17;;;;;;;3.17;2.55;;;14.20;98.10;;;15.12;64.29;98312.59;5210026;28;20198;-63
2022/08/08 01:51:35;;;;;;;2.78;2.67;;;14.10;98.40;;;15.03;64.22;98318.22;5205788;28;20313;-63
2022/08/08 01:54:48;;;;;;;2.70;2.50;;;14.10;98.10;;;14.98;64.13;98316.22;5200503;28;20690;-62
2022/08/08 01:57:50;;;;;;;2.63;2.42;;;14.00;98.60;;;14.99;63.96;98323.13;5204133;28;20565;-63
2022/08/08 02:00:53;;;;;;;2.70;2.50;;;14.00;98.80;;;14.95;64.89;98318.66;5200287;28;20201;-62
2022/08/08 02:03:43;;;;;;;2.75;2.55;;;14.00;99.10;;;14.86;64.69;98327.72;5208536;28;20213;-63
2022/08/08 02:07:00;;;;;;;2.60;2.50;;;13.90;99.20;;;14.83;64.88;98330.13;5200966;28;20700;-63
2022/08/08 02:09:57;;;;;;;2.67;2.58;;;13.80;99.20;;;14.80;64.82;98327.41;5179257;28;20201;-62
2022/08/08 02:12:52;;;;;;;2.47;2.33;;;13.80;99.00;;;14.80;63.42;98330.00;5202503;28;20307;-63
2022/08/08 02:15:34;;;;;;;2.55;2.35;;;13.70;98.80;;;14.69;64.11;98327.72;5193103;28;20253;-63
2022/08/08 02:18:17;;;;;;;2.92;2.60;;;13.70;98.60;;;14.60;63.18;98321.31;5201158;28;20209;-63
2022/08/08 02:24:00;;;;;;;2.90;2.70;;;13.70;98.30;;;14.52;63.61;98321.75;5190366;28;20701;-62
2022/08/08 02:26:45;;;;;;;3.15;2.95;;;13.70;98.30;;;14.55;63.76;98315.06;5197331;28;20331;-63
2022/08/08 02:29:55;;;;;;;2.97;2.78;;;13.70;98.60;;;14.51;64.50;98312.25;5208757;28;20204;-63
2022/08/08 02:33:00;;;;;;;3.10;2.90;;;13.70;99.00;;;14.54;64.14;98309.84;5200591;28;20225;-63
2022/08/08 02:36:08;;;;;;;2.70;2.50;;;13.70;98.90;;;14.58;64.66;98316.91;5197390;28;20228;-62
2022/08/08 02:39:26;;;;;;;2.63;2.53;;;13.70;99.10;;;14.58;64.78;98306.59;5199326;28;20216;-63
2022/08/08 02:43:06;;;;;;;2.97;2.80;;;13.70;99.40;;;14.58;65.01;98311.75;5203576;28;20232;-63
2022/08/08 02:46:57;;;;;;;2.88;2.67;;;13.70;99.60;;;14.54;64.88;98310.72;5207269;28;20564;-63
2022/08/08 02:50:16;;;;;;;2.72;2.53;;;13.60;99.60;;;14.43;65.24;98311.84;5201427;28;20250;-63
2022/08/08 02:53:37;;;;;;;3.30;3.10;;;13.60;99.70;;;14.42;66.83;98315.22;5200982;28;20316;-63
2022/08/08 02:56:47;;;;;;;2.88;2.78;;;13.50;99.90;;;14.48;65.82;98314.63;5209100;28;20285;-63
2022/08/08 03:00:32;;;;;;;3.25;3.00;;;13.60;99.90;;;14.41;65.82;98316.91;5210974;28;20677;-62
2022/08/08 03:04:15;;;;;;;2.70;2.60;;;13.50;99.90;;;14.44;65.59;98313.59;5184681;28;20225;-62
2022/08/08 03:08:00;;;;;;;3.17;2.85;;;13.60;99.90;;;14.39;66.11;98318.53;5151959;28;20199;-63
2022/08/08 03:11:17;;;;;;;3.00;2.80;;;13.60;99.90;;;14.42;66.44;98326.41;5196001;28;20214;-62
2022/08/08 03:15:05;;;;;;;3.10;2.90;;;13.60;99.90;;;14.40;66.54;98330.59;5212682;28;20225;-63
2022/08/08 03:18:07;;;;;;;2.90;2.80;;;13.50;99.90;;;14.34;67.05;98334.56;5214163;28;20210;-63
2022/08/08 03:20:44;;;;;;;2.75;2.55;;;13.50;99.90;;;14.36;67.07;98331.22;5210469;28;20608;-63
2022/08/08 03:23:26;;;;;;;2.70;2.60;;;13.50;99.90;;;14.41;67.26;98332.34;5206593;28;20221;-63
2022/08/08 03:26:30;;;;;;;2.13;2.03;;;13.50;99.90;;;14.31;66.52;98331.84;5205207;28;20211;-63
2022/08/08 03:29:20;;;;;;;3.35;3.05;;;13.40;99.90;;;14.24;67.23;98330.63;5216050;28;20572;-63
2022/08/08 03:35:06;;;;;;;2.90;2.70;;;13.10;99.90;;;14.12;68.49;98340.28;5207915;28;20237;-63
2022/08/08 03:37:41;;;;;;;2.90;2.75;;;13.10;99.90;;;13.96;68.32;98342.09;5209747;28;20210;-63
2022/08/08 03:40:36;;;;;;;3.00;2.80;;;13.00;99.90;;;14.01;67.70;98339.75;5203542;28;20574;-63
2022/08/08 03:43:11;;;;;;;3.13;2.90;;;13.00;99.90;;;13.98;68.89;98343.03;5208458;28;20256;-63
2022/08/08 03:45:48;;;;;;;3.00;2.88;;;13.10;99.90;;;13.94;68.86;98353.97;5205546;28;20205;-63
2022/08/08 03:48:41;;;;;;;3.00;2.80;;;13.00;99.90;;;13.91;68.69;98355.50;5200979;28;20202;-63
2022/08/08 03:51:36;;;;;;;3.15;2.95;;;13.00;99.90;;;13.87;67.97;98348.41;5199620;28;20216;-63
2022/08/08 03:54:25;;;;;;;3.55;3.35;;;13.00;99.90;;;13.93;68.59;98359.91;5213558;28;20306;-63
2022/08/08 03:57:15;;;;;;;3.25;3.05;;;13.10;99.90;;;13.96;68.21;98357.50;5209697;28;20212;-63
2022/08/08 04:00:11;;;;;;;3.47;3.17;;;13.10;99.90;;;13.94;69.16;98363.38;5210646;28;20209;-63
2022/08/08 04:02:56;;;;;;;3.42;3.15;;;13.10;99.90;;;14.00;68.44;98362.81;5201747;28;20220;-63
2022/08/08 04:05:35;;;;;;;3.30;3.10;;;13.10;99.90;;;13.94;69.63;98360.81;5207773;28;20193;-63
2022/08/08 04:08:18;;;;;;;3.58;3.35;;;13.00;99.90;;;13.95;69.29;98366.00;5209033;28;20229;-62
2022/08/08 04:11:07;;;;;;;3.75;3.33;;;13.00;99.90;;;13.94;70.45;98369.38;5200906;28;20202;-63
2022/08/08 04:13:50;;;;;;;3.72;3.53;;;13.10;99.90;;;14.01;70.09;98372.28;5202311;28;20245;-63
2022/08/08 04:16:36;;;;;;;3.40;3.20;;;13.10;99.90;;;13.98;70.00;98370.44;5201027;28;20329;-63
2022/08/08 04:19:12;;;;;;;3.33;3.13;;;13.10;99.90;;;13.98;69.11;98373.88;5207748;28;20201;-62
2022/08/08 04:21:57;;;;;;;3.60;3.30;;;13.10;99.90;;;14.00;69.72;98370.53;5202682;28;20197;-63
2022/08/08 04:24:30;;;;;;;3.67;3.33;;;13.10;99.90;;;14.02;70.09;98379.16;5205150;28;20253;-63
2022/08/08 04:27:05;;;;;;;4.05;3.72;;;13.20;99.90;;;13.98;69.69;98378.13;5211629;28;20221;-63
2022/08/08 04:29:43;;;;;;;3.55;3.30;;;13.20;99.90;;;13.96;69.64;98385.78;5200526;28;20197;-63
2022/08/08 04:32:36;;;;;;;3.65;3.45;;;13.10;99.90;;;14.00;69.61;98386.81;5197548;28;20228;-63
2022/08/08 04:35:13;;;;;;;3.67;3.42;;;13.20;99.90;;;14.05;69.61;98379.31;5208483;28;20218;-63
2022/08/08 04:37:46;;;;;;;3.85;3.55;;;13.30;99.90;;;14.02;70.22;98384.31;5203887;28;20284;-63
2022/08/08 04:40:21;;;;;;;3.72;3.53;;;13.20;99.90;;;14.08;69.64;98389.75;5202122;28;20747;-63
2022/08/08 04:42:58;;;;;;;4.15;3.67;;;13.20;99.90;;;14.07;69.41;98403.44;5200753;28;20318;-63
2022/08/08 04:45:35;;;;;;;3.80;3.50;;;13.20;99.90;;;14.10;70.21;98401.91;5206778;28;20216;-63
2022/08/08 04:48:08;;;;;;;3.90;3.60;;;13.30;99.90;;;14.05;69.84;98400.81;5206660;28;20229;-63
2022/08/08 04:50:41;;;;;;;4.40;3.78;;;13.20;99.90;;;14.14;69.99;98400.41;5211491;28;20696;-62
2022/08/08 04:53:18;;;;;;;4.05;3.65;;;13.30;99.90;;;14.11;70.60;98406.25;5205237;28;20224;-63
2022/08/08 04:56:11;;;;;;;3.67;3.47;;;13.30;99.90;;;14.14;71.02;98405.53;5196625;28;20216;-63
2022/08/08 04:58:44;;;;;;;3.92;3.63;;;13.30;99.90;;;14.16;70.09;98409.97;5205353;28;20237;-63
2022/08/08 05:01:24;;;;;;;3.85;3.65;;;13.40;99.90;;;14.25;69.83;98414.69;5213023;28;20233;-63
2022/08/08 05:04:07;;;;;;;4.50;4.20;;;13.40;99.90;;;14.28;69.83;98412.28;5198549;28;20597;-63
2022/08/08 05:06:46;;;;;;;4.45;4.15;;;13.50;99.90;;;14.38;69.58;98405.91;5210550;28;20200;-63
2022/08/08 05:09:24;;;;;;;3.28;3.08;;;13.60;99.90;;;14.55;70.19;98414.50;5204259;28;20681;-63
2022/08/08 05:12:02;;;;;;;3.55;3.33;;;13.70;99.90;;;14.62;70.06;98421.72;5199431;28;20202;-63
2022/08/08 05:14:35;;;;;;;3.63;3.42;;;13.70;99.90;;;14.68;69.14;98419.47;5192068;28;20666;-63
2022/08/08 05:17:11;;;;;;;3.55;3.35;;;13.80;99.90;;;14.82;68.53;98409.84;5202255;28;20206;-63
2022/08/08 05:19:47;;;;;;;4.35;4.05;;;13.90;99.90;;;14.94;68.56;98410.47;5210770;28;20204;-63
2022/08/08 05:22:40;;;;;;;3.47;3.28;;;14.00;99.90;;;15.02;67.84;98413.38;5203156;28;20218;-62
2022/08/08 05:25:13;;;;;;;3.95;3.75;;;14.00;99.90;;;15.32;67.70;98409.69;5196399;28;20190;-63
2022/08/08 05:27:47;;;;;;;3.63;3.40;;;14.50;99.90;;;16.03;65.54;98423.28;5200260;28;20197;-63
2022/08/08 05:30:20;;;;;;;3.45;3.25;;;15.40;99.90;;;16.78;62.83;98423.09;5212648;28;20244;-63
2022/08/08 05:33:02;;;;;;;3.40;3.13;;;16.00;98.50;;;17.48;60.56;98412.13;5201325;28;20218;-63
2022/08/08 05:35:36;;;;;;;3.50;3.30;;;16.50;97.40;;;18.10;58.28;98424.00;5201610;28;20224;-63
2022/08/08 05:38:16;;;;;;;2.88;2.67;;;16.90;96.30;;;18.71;56.36;98412.31;5197183;28;20204;-62
2022/08/08 05:41:04;;;;;;;3.20;3.00;;;17.50;95.20;;;19.28;54.52;98416.78;5203952;28;20595;-63
2022/08/08 05:43:45;;;;;;;3.15;2.95;;;17.80;94.20;;;19.74;53.26;98421.75;5212323;28;20271;-64
2022/08/08 05:46:38;;;;;;;3.83;2.80;;;18.20;93.70;;;20.09;51.89;98418.38;5197667;28;20195;-63
2022/08/08 05:49:14;;;;;;;3.20;3.00;;;18.40;92.80;;;20.37;51.04;98427.81;5209028;28;20205;-64
2022/08/08 05:51:48;;;;;;;2.95;2.75;;;18.70;91.80;;;20.68;50.05;98430.44;5205501;28;20263;-63
2022/08/08 05:54:25;;;;;;;3.22;3.03;;;18.90;91.60;;;21.07;49.29;98421.03;5204052;28;20198;-64
2022/08/08 05:57:21;;;;;;;3.00;2.80;;;19.40;90.50;;;21.39;48.32;98419.22;5205464;28;20700;-63
2022/08/08 06:00:15;;;;;;;2.95;2.78;;;19.30;90.60;;;21.70;47.63;98425.13;5206644;28;20475;-62
2022/08/08 06:03:11;;;;;;;3.10;2.83;;;19.80;90.10;;;21.94;46.66;98422.16;5206387;28;20221;-61
2022/08/08 06:06:02;;;;;;;2.90;2.63;;;19.90;89.10;;;22.17;46.34;98417.44;5198671;28;20797;-62
2022/08/08 06:08:44;;;;;;;3.08;2.75;;;19.90;89.70;;;22.39;46.44;98421.38;5202685;28;20205;-61
2022/08/08 06:11:31;;;;;;;3.30;3.10;;;20.30;88.60;;;22.46;45.26;98424.13;5202912;28;20293;-62
2022/08/08 06:14:09;;;;;;;3.08;2.70;;;20.30;86.90;;;22.63;45.54;98428.75;5207706;28;20236;-63
2022/08/08 06:16:50;;;;;;;3.13;2.92;;;20.40;88.00;;;22.97;44.65;98422.44;5191145;28;20218;-62
2022/08/08 06:19:25;;;;;;;2.90;2.80;;;20.70;86.20;;;23.25;43.29;98426.38;5198629;28;20301;-62
2022/08/08 06:22:00;;;;;;;3.10;2.90;;;21.10;83.90;;;23.60;43.66;98423.44;5203094;28;20209;-63
2022/08/08 06:24:53;;;;;;;3.13;2.92;;;21.20;85.40;;;23.50;43.65;98429.38;5206894;28;20208;-63
2022/08/08 06:27:36;;;;;;;2.60;2.38;;;21.30;84.40;;;24.18;43.00;98434.69;5215871;28;20197;-63
2022/08/08 06:30:13;;;;;;;3.03;2.80;;;21.80;84.70;;;24.54;42.01;98432.50;5210559;28;20573;-63
2022/08/08 06:33:01;;;;;;;2.70;2.55;;;22.30;82.20;;;24.85;41.33;98438.94;5203091;28;20248;-63
2022/08/08 06:35:35;;;;;;;2.47;2.28;;;22.60;81.10;;;25.26;40.03;98433.22;5214442;28;20251;-63
2022/08/08 06:38:36;;;;;;;3.10;2.90;;;22.70;80.00;;;25.49;39.75;98428.13;5211594;28;20216;-62
2022/08/08 06:41:13;;;;;;;2.70;2.50;;;23.00;79.50;;;25.77;38.39;98434.44;5200130;28;20194;-63
2022/08/08 06:43:49;;;;;;;2.67;2.47;;;23.20;77.80;;;25.74;38.65;98439.66;5202459;28;20288;-63
2022/08/08 06:46:29;;;;;;;3.88;2.85;;;23.20;77.40;;;25.76;38.38;98438.78;5200198;28;20854;-62
2022/08/08 06:49:04;;;;;;;3.58;3.20;;;23.20;76.90;;;25.91;38.83;98435.41;5204898;28;20204;-63
2022/08/08 06:51:44;;;;;;;3.30;3.10;;;23.50;77.30;;;26.18;37.75;98439.03;5202445;28;20194;-63
2022/08/08 06:54:25;;;;;;;3.00;2.80;;;23.70;75.50;;;25.88;38.71;98427.53;5202448;28;20296;-63
2022/08/08 06:56:59;;;;;;;3.05;2.70;;;23.40;76.70;;;26.03;38.55;98426.72;5203202;28;20503;-64
2022/08/08 06:59:34;;;;;;;3.38;3.00;;;23.60;76.40;;;26.18;38.34;98433.78;5202290;28;20229;-65
2022/08/08 07:02:32;;;;;;;3.10;2.63;;;24.10;75.50;;;26.82;37.63;98431.38;5207561;28;20804;-65
2022/08/08 07:05:08;;;;;;;2.63;2.47;;;24.50;75.00;;;26.65;37.59;98435.72;5193535;28;20229;-65
2022/08/08 07:08:00;;;;;;;2.95;2.75;;;24.50;73.90;;;26.82;38.42;98436.63;5183798;28;20193;-64
2022/08/08 07:10:42;;;;;;;2.78;2.58;;;24.60;75.00;;;26.99;38.08;98438.41;5200581;28;20233;-64
2022/08/08 07:13:20;;;;;;;3.08;2.40;;;25.10;74.00;;;27.45;37.95;98436.66;5200092;28;20631;-64
2022/08/08 07:16:04;;;;;;;2.40;2.22;;;25.60;73.90;;;27.92;36.94;98448.00;5200446;28;20686;-65
2022/08/08 07:18:59;;;;;;;3.38;2.55;;;26.20;71.70;;;28.30;35.90;98446.09;5199595;28;20572;-63
2022/08/08 07:21:43;;;;;;;3.10;2.55;;;26.50;71.30;;;28.47;35.68;98446.06;5201014;28;20229;-64
2022/08/08 07:24:26;;;;;;;2.65;2.45;;;26.50;70.50;;;28.59;35.72;98445.13;5202890;28;20198;-63
2022/08/08 07:27:02;;;;;;;4.00;2.65;;;26.40;70.90;;;28.45;36.32;98449.56;5203519;28;20284;-64
2022/08/08 07:29:37;;;;;;;2.85;2.67;;;26.40;71.40;;;28.61;35.81;98443.31;5209347;28;20212;-63
2022/08/08 07:32:32;;;;;;;2.65;2.45;;;26.40;70.90;;;29.21;34.70;98440.31;5205831;28;20247;-64
2022/08/08 07:35:07;;;;;;;2.80;2.60;;;26.80;70.30;;;29.69;34.65;98437.28;5208009;28;20228;-67
2022/08/08 07:37:42;;;;;;;2.70;2.47;;;27.50;69.30;;;29.61;34.26;98438.19;5209458;28;20625;-66
2022/08/08 07:40:36;;;;;;;2.80;2.58;;;27.30;69.50;;;29.93;33.73;98442.25;5193476;28;20287;-64
2022/08/08 07:43:15;;;;;;;2.90;2.70;;;27.20;69.90;;;30.24;33.20;98436.66;5205545;28;20766;-64
2022/08/08 07:45:55;;;;;;;2.80;2.60;;;27.40;68.70;;;30.30;32.70;98448.03;5200766;28;20207;-64
2022/08/08 07:48:48;;;;;;;2.92;2.60;;;27.40;68.70;;;30.58;33.20;98446.78;5199891;28;20201;-64
2022/08/08 07:51:21;;;;;;;2.47;2.35;;;27.60;68.90;;;30.90;31.83;98451.63;5202771;28;20328;-64
2022/08/08 07:54:21;;;;;;;3.28;2.50;;;27.70;68.00;;;31.07;32.17;98451.38;5197761;28;20228;-64
2022/08/08 07:57:17;;;;;;;3.08;2.70;;;27.60;68.70;;;31.28;31.33;98451.03;5199357;28;20228;-64
2022/08/08 08:00:00;;;;;;;2.80;2.20;;;28.20;66.80;;;31.08;31.87;98447.84;5208455;28;20715;-64
2022/08/08 08:02:40;;;;;;;2.55;2.30;;;28.20;67.00;;;31.19;31.75;98443.22;5199416;28;20221;-65
2022/08/08 08:05:21;;;;;;;3.83;2.38;;;28.80;65.40;;;30.92;31.77;98453.34;5194864;28;20207;-65
2022/08/08 08:08:05;;;;;;;2.72;2.47;;;28.90;64.80;;;30.79;31.85;98453.50;5202990;28;20217;-64
2022/08/08 08:10:39;;;;;;;3.63;2.90;;;28.80;64.70;;;30.67;32.86;98451.94;5195566;28;20206;-64
2022/08/08 08:13:31;;;;;;;2.58;2.38;;;28.80;65.40;;;30.75;32.23;98460.63;5204048;28;20677;-65
2022/08/08 08:16:29;;;;;;;3.00;2.53;;;28.90;64.10;;;30.37;33.07;98454.09;5204620;28;20720;-66
2022/08/08 08:19:07;;;;;;;2.70;2.50;;;28.70;65.20;;;30.32;33.43;98450.63;5201767;28;20221;-65
2022/08/08 08:21:42;;;;;;;3.00;2.80;;;28.90;65.40;;;30.55;32.88;98452.97;5193481;28;20292;-65
2022/08/08 08:24:29;;;;;;;2.85;2.65;;;29.10;64.30;;;30.94;31.47;98445.41;5196378;28;20210;-65
2022/08/08 08:27:07;;;;;;;2.95;2.47;;;29.60;62.60;;;30.03;32.61;98457.09;5204069;28;20193;-65
2022/08/08 08:29:41;;;;;;;2.40;2.30;;;29.30;61.90;;;30.19;33.25;98444.63;5198903;28;20292;-65
2022/08/08 08:32:15;;;;;;;3.20;2.90;;;29.00;63.90;;;30.23;32.52;98441.06;5203669;28;20255;-65
2022/08/08 08:35:09;;;;;;;3.08;2.47;;;29.10;62.80;;;30.70;32.45;98438.69;5195484;28;20210;-65
2022/08/08 08:37:47;;;;;;;2.92;2.72;;;29.50;62.60;;;30.74;31.82;98448.31;5199838;28;20506;-65
2022/08/08 08:40:40;;;;;;;2.40;2.30;;;29.70;61.20;;;30.59;32.12;98448.53;5195438;28;20283;-65
2022/08/08 08:43:16;;;;;;;2.70;2.50;;;29.60;61.50;;;30.71;31.72;98448.38;5199995;28;20233;-65
2022/08/08 08:45:53;;;;;;;2.42;2.25;;;29.50;61.40;;;31.01;30.87;98449.69;5208080;28;20197;-65
2022/08/08 08:48:31;;;;;;;3.22;2.80;;;30.00;60.60;;;30.95;31.00;98442.75;5203596;28;20271;-67
2022/08/08 08:51:15;;;;;;;2.95;2.55;;;30.20;59.90;;;30.80;32.02;98448.25;5201810;28;20202;-65
2022/08/08 08:53:52;;;;;;;2.45;2.20;;;29.80;61.40;;;30.91;31.92;98440.19;5203399;28;20713;-66
2022/08/08 08:56:36;;;;;;;2.67;2.40;;;29.90;61.50;;;30.63;30.48;98451.09;5198799;28;20201;-66
2022/08/08 08:59:12;;;;;;;2.63;2.42;;;29.90;58.50;;;29.95;31.66;98451.03;5197430;28;20280;-65
2022/08/08 09:01:51;;;;;;;2.30;2.20;;;29.20;59.70;;;30.41;30.42;98450.50;5196942;28;20224;-65
2022/08/08 09:04:28;;;;;;;2.53;2.10;;;29.60;58.30;;;30.51;29.38;98443.38;5208524;28;20566;-65
2022/08/08 09:07:04;;;;;;;1.98;1.88;;;29.90;56.90;;;30.23;29.63;98445.50;5200469;28;20280;-65
2022/08/08 09:09:52;;;;;;;2.30;2.20;;;29.60;57.40;;;30.20;29.74;98451.63;5199072;28;20767;-65
2022/08/08 09:12:34;;;;;;;1.98;1.77;;;29.60;57.60;;;30.17;28.16;98441.13;5203086;28;20677;-65
2022/08/08 09:15:09;;;;;;;2.10;1.90;;;29.60;55.20;;;30.27;28.44;98453.31;5195697;28;20236;-65
2022/08/08 09:17:42;;;;;;;2.25;1.80;;;29.70;55.50;;;30.25;28.27;98443.72;5201452;28;20263;-65
2022/08/08 09:20:29;;;;;;;1.70;1.60;;;29.70;54.80;;;30.23;27.06;98451.63;5207963;28;20212;-65
2022/08/08 09:23:25;;;;;;;1.80;1.70;;;29.60;54.20;;;30.46;27.09;98440.78;5208796;28;20217;-65
2022/08/08 09:26:14;;;;;;;2.00;1.90;;;29.90;53.90;;;30.40;27.12;98435.59;5206033;28;20288;-65
2022/08/08 09:28:50;;;;;;;2.20;2.00;;;30.20;53.50;;;29.92;28.39;98451.06;5202622;28;20190;-64
2022/08/08 09:31:41;;;;;;;1.63;1.52;;;29.30;55.10;;;29.76;28.58;98444.22;5201582;28;20295;-64
2022/08/08 09:34:34;;;;;;;2.53;1.90;;;29.10;55.60;;;29.11;28.98;98447.41;5204740;28;20201;-64
2022/08/08 09:37:11;;;;;;;1.92;1.83;;;28.80;55.10;;;29.52;28.87;98442.69;5202160;28;20213;-64
2022/08/08 09:40:07;;;;;;;2.13;1.88;;;29.00;55.30;;;29.87;27.20;98447.63;5206462;28;20215;-63
2022/08/08 09:42:45;;;;;;;2.65;1.92;;;29.40;53.60;;;29.67;27.68;98444.31;5206669;28;20656;-63
2022/08/08 09:45:32;;;;;;;1.73;1.63;;;29.10;53.80;;;29.80;27.49;98449.44;5200799;28;20216;-63
2022/08/08 09:48:29;;;;;;;2.10;2.00;;;29.30;54.00;;;29.86;27.96;98430.94;5200842;28;20576;-63
2022/08/08 09:51:09;;;;;;;2.00;1.90;;;29.30;54.70;;;30.05;27.49;98431.59;5197330;28;20292;-63
2022/08/08 09:53:50;;;;;;;2.38;1.70;;;29.60;53.60;;;29.99;27.70;98431.69;5206132;28;20225;-63
2022/08/08 09:56:48;;;;;;;1.90;1.80;;;29.60;53.80;;;29.82;29.56;98423.97;5201748;28;20207;-64
2022/08/08 09:59:25;;;;;;;2.53;2.05;;;29.30;55.60;;;30.01;29.00;98429.88;5201922;28;20220;-64
2022/08/08 10:02:23;;;;;;;2.22;2.03;;;29.50;55.40;;;29.96;29.55;98426.44;5202002;28;20709;-64
2022/08/08 10:05:04;;;;;;;1.80;1.70;;;29.40;55.80;;;29.49;27.22;98430.41;5201898;28;20299;-63
2022/08/08 10:07:56;;;;;;;1.77;1.67;;;29.20;53.20;;;29.04;28.16;98413.25;5199101;28;20213;-64
2022/08/08 10:10:36;;;;;;;1.98;1.80;;;28.40;54.50;;;28.82;27.76;98404.63;5198449;28;20205;-63
2022/08/08 10:13:18;;;;;;;1.98;1.40;;;28.10;53.90;;;28.79;28.08;98425.66;5203921;28;20221;-63
2022/08/08 10:16:01;;;;;;;2.13;1.45;;;28.30;53.50;;;29.07;26.85;98429.00;5199638;28;20197;-63
2022/08/08 10:18:38;;;;;;;1.88;1.70;;;28.60;52.60;;;28.97;28.00;98415.91;5194827;28;20229;-64
2022/08/08 10:21:16;;;;;;;1.92;1.50;;;28.50;53.20;;;29.16;27.96;98416.66;5195902;28;20201;-64
2022/08/08 10:24:03;;;;;;;1.60;1.50;;;28.70;53.80;;;29.34;27.72;98418.25;5193297;28;20709;-64
2022/08/08 10:27:01;;;;;;;1.60;1.50;;;29.00;53.50;;;29.50;26.93;98429.50;5203411;28;20201;-65
2022/08/08 10:29:47;;;;;;;1.77;1.67;;;29.00;52.20;;;29.01;27.23;98431.66;5196768;28;20259;-64
2022/08/08 10:32:34;;;;;;;1.50;1.40;;;28.50;52.40;;;29.10;26.68;98414.09;5204794;28;20697;-62
2022/08/08 10:35:14;;;;;;;1.63;1.52;;;28.80;51.60;;;28.92;26.97;98438.75;5199712;28;20213;-65
2022/08/08 10:38:14;;;;;;;1.90;1.58;;;28.50;52.00;;;29.00;26.55;98428.16;5203123;28;20276;-64
2022/08/08 10:40:52;;;;;;;1.80;1.70;;;28.50;52.00;;;28.87;26.70;98419.50;5200090;28;20459;-64
2022/08/08 10:43:38;;;;;;;1.65;1.55;;;28.40;51.70;;;28.79;26.77;98421.31;5203209;28;20617;-65
2022/08/08 10:46:26;;;;;;;1.40;1.30;;;28.30;52.30;;;29.24;27.54;98419.22;5198537;28;20198;-65
2022/08/08 10:49:02;;;;;;;3.35;1.67;;;28.80;52.60;;;29.26;26.42;98416.59;5190825;28;20213;-64
2022/08/08 10:51:37;;;;;;;3.03;1.75;;;28.90;51.10;;;29.21;26.52;98419.25;5206544;28;20225;-65
2022/08/08 10:54:23;;;;;;;1.30;1.20;;;28.80;51.10;;;29.18;27.19;98414.88;5200490;28;20201;-64
2022/08/08 10:57:01;;;;;;;1.48;1.35;;;28.70;52.20;;;29.38;26.66;98413.81;5199155;28;20548;-65
2022/08/08 10:59:38;;;;;;;1.50;1.40;;;29.00;51.80;;;29.08;26.01;98413.22;5205552;28;20260;-65
2022/08/08 11:02:12;;;;;;;2.08;1.85;;;28.80;51.90;;;29.10;26.75;98419.34;5198697;28;20268;-64
2022/08/08 11:04:46;;;;;;;1.98;1.60;;;28.60;51.70;;;29.04;25.99;98415.88;5201253;28;20206;-64
2022/08/08 11:07:28;;;;;;;1.67;1.50;;;28.60;51.50;;;29.28;26.36;98414.81;5200989;28;20212;-64
2022/08/08 11:10:23;;;;;;;1.42;1.33;;;28.70;51.90;;;29.45;25.92;98404.13;5207901;28;20206;-65
2022/08/08 11:13:01;;;;;;;1.52;1.42;;;29.00;50.60;;;29.06;26.17;98408.84;5205212;28;20643;-64
2022/08/08 11:15:56;;;;;;;1.50;1.40;;;28.80;50.70;;;29.02;26.02;98407.97;5199474;28;20599;-64
2022/08/08 11:18:40;;;;;;;2.08;1.48;;;28.60;50.70;;;29.32;26.21;98395.44;5201944;28;20224;-64
2022/08/08 11:21:17;;;;;;;1.40;1.30;;;28.80;51.20;;;29.33;24.77;98405.09;5199127;28;20592;-64
2022/08/08 11:23:55;;;;;;;1.63;1.52;;;28.80;49.90;;;28.98;25.75;98406.22;5199146;28;20227;-64
2022/08/08 11:26:37;;;;;;;2.35;1.42;;;28.60;50.40;;;28.95;26.46;98403.63;5207215;28;20197;-64
2022/08/08 11:29:30;;;;;;;1.83;1.40;;;28.60;50.80;;;28.62;26.89;98403.00;5207098;28;20190;-65
2022/08/08 11:32:26;;;;;;;2.55;1.30;;;28.10;51.40;;;28.80;25.38;98386.19;5204351;28;20693;-64
2022/08/08 11:35:07;;;;;;;1.60;1.50;;;28.30;49.80;;;28.71;25.80;98392.41;5209716;28;20624;-64
2022/08/08 11:38:01;;;;;;;1.65;1.45;;;28.30;50.80;;;28.79;26.45;98392.34;5210541;28;20356;-64
2022/08/08 11:40:55;;;;;;;1.45;1.35;;;28.20;51.10;;;28.81;26.09;98387.06;5205990;28;20196;-64
2022/08/08 11:43:31;;;;;;;1.60;1.50;;;28.30;50.90;;;28.54;25.56;98396.03;5196718;28;20756;-64
2022/08/08 11:46:15;;;;;;;1.70;1.60;;;28.10;50.10;;;28.50;25.66;98392.53;5205957;28;20251;-64
2022/08/08 11:48:53;;;;;;;1.55;1.45;;;28.10;50.50;;;28.47;26.17;98395.19;5206928;28;20232;-64
2022/08/08 11:51:27;;;;;;;4.75;1.90;;;27.90;50.90;;;28.50;26.74;98397.78;5208000;28;20657;-64
2022/08/08 11:54:12;;;;;;;1.58;1.48;;;28.00;51.40;;;28.61;25.94;98385.44;5205479;28;20217;-64
2022/08/08 11:57:13;;;;;;;1.42;1.33;;;28.10;51.20;;;28.60;26.78;98373.19;5206877;28;20205;-64
2022/08/08 11:59:56;;;;;;;1.60;1.50;;;28.10;51.30;;;28.66;26.28;98372.28;5206078;28;20225;-66